Terminal Aerodrome Forecast
Issued by NWS

Current Version | Previous Version | Text Only | Print | Product List | Glossary Off
Versions: 1 2 3 4 5 6 7 8 9 10 11 12 13 14 15 16

000
FTUS41 KILN 250537
TAFLUK
TAF
KLUK 250537Z 2506/2606 VRB02KT P6SM SKC
     FM251200 29009KT P6SM SCT060
     FM260000 VRB02KT P6SM FEW060
     FM260400 00000KT 4SM BR FEW060=

USA.gov is the U.S. government's official web portal to all federal, state and local government web resources and services.